KMWH/MWH METAR and TAF weather

Enter ICAO airport designator
Station Type Date Time Source
KMWH METAR 2019/06/16 04:52 UTC NOAA

KMWH 160452Z AUTO 18004KT 10SM CLR 27/06 A2987 RMK AO2 SLP105 T02670056


Station Type Date Time Source
KMWH Decoded METAR 2019/06/16 04:52 UTC NOAA

GRANT COUNTY AIRPORT, WA, United States (KMWH) 47-12N 119-19W 362M
Jun 16, 2019 - 12:52 AM EDT / 2019.06.16 0452 UTC
Wind: from the S (180 degrees) at 5 MPH (4 KT):0
Visibility: 10 mile(s):0
Sky conditions: clear
Temperature: 80.1 F (26.7 C)
Dew Point: 42.1 F (5.6 C)
Relative Humidity: 25%
Pressure (altimeter): 29.87 in. Hg (1011 hPa)
ob: KMWH 160452Z AUTO 18004KT 10SM CLR 27/06 A2987 RMK AO2 SLP105 T02670056
cycle: 5

Station Type Date Time Source
KMWH TAF 2019/06/15 18:36 UTC NOAA

TAF KMWH 151734Z 1518/1618 20007KT P6SM SKC
FM160400 VRB04KT P6SM SKC
FM160800 36005KT P6SM SKC

Example: see airport list